| time (UTC) | temp F | wind direction | speed knots | gust knots | rain 1hr in | rain 24hr in | rain mn in | humidity % | barometer mb |
| 20260506231548 | 45 | 45 | 0.0 | 0.0 | 0.00 | 0.01 | 0.00 | 70 | 998.7 |
| 20260506230037 | 45 | 45 | 0.0 | 0.0 | 0.00 | 0.01 | 0.00 | 70 | 998.8 |
| 20260506224526 | 45 | 45 | 0.0 | 0.0 | 0.00 | 0.01 | 0.00 | 69 | 998.8 |
| 20260506223021 | 45 | 45 | 0.0 | 0.0 | 0.00 | 0.01 | 0.00 | 68 | 998.8 |
| 20260506221612 | 46 | 45 | 0.0 | 0.0 | 0.00 | 0.01 | 0.00 | 65 | 998.9 |
| 20260506214550 | 49 | 45 | 0.0 | 0.0 | 0.00 | 0.01 | 0.00 | 60 | 999.2 |
| 20260506213045 | 50 | 45 | 0.0 | 3.5 | 0.00 | 0.01 | 0.00 | 59 | 998.9 |
| 20260506211534 | 50 | 52 | 0.9 | 3.5 | 0.00 | 0.01 | 0.00 | 57 | 998.9 |
| 20260506210057 | 51 | 53 | 0.9 | 1.7 | 0.00 | 0.01 | 0.00 | 57 | 998.9 |
| 20260506204546 | 51 | 52 | 0.9 | 5.2 | 0.00 | 0.01 | 0.01 | 56 | 999.0 |
| 20260506203036 | 52 | 53 | 0.9 | 3.5 | 0.00 | 0.01 | 0.01 | 58 | 999.1 |
| 20260506201525 | 52 | 52 | 0.9 | 1.7 | 0.00 | 0.01 | 0.01 | 62 | 999.2 |
| 20260506200114 | 53 | 23 | 0.0 | 1.7 | 0.00 | 0.01 | 0.01 | 66 | 999.0 |
| 20260506194609 | 53 | 23 | 0.0 | 1.7 | 0.00 | 0.01 | 0.01 | 64 | 998.8 |
| 20260506193059 | 50 | 23 | 0.0 | 1.7 | 0.00 | 0.01 | 0.01 | 75 | 998.6 |
| 20260506191548 | 50 | 23 | 0.0 | 0.0 | 0.00 | 0.01 | 0.01 | 80 | 998.3 |
| 20260506190037 | 51 | 23 | 0.0 | 0.0 | 0.00 | 0.01 | 0.01 | 79 | 998.2 |
| 20260506184527 | 53 | 23 | 0.0 | 0.0 | 0.00 | 0.01 | 0.01 | 73 | 998.1 |
| 20260506183022 | 55 | 23 | 0.0 | 0.0 | 0.00 | 0.01 | 0.01 | 68 | 998.0 |
| 20260506181612 | 56 | 23 | 0.0 | 0.0 | 0.00 | 0.01 | 0.01 | 65 | 997.8 |
| 20260506174550 | 58 | 23 | 0.0 | 0.0 | 0.00 | 0.01 | 0.01 | 58 | 997.5 |
| 20260506173045 | 61 | 23 | 0.0 | 1.7 | 0.00 | 0.01 | 0.01 | 54 | 997.2 |
| 20260506170058 | 62 | 293 | 0.0 | 1.7 | 0.00 | 0.01 | 0.01 | 52 | 996.8 |
| 20260506164547 | 62 | 293 | 0.0 | 1.7 | 0.00 | 0.01 | 0.01 | 52 | 996.7 |
| 20260506163036 | 63 | 23 | 0.0 | 1.7 | 0.00 | 0.01 | 0.01 | 50 | 996.6 |
| 20260506161526 | 65 | 248 | 0.0 | 1.7 | 0.00 | 0.01 | 0.01 | 49 | 996.5 |
| 20260506160115 | 65 | 341 | 0.0 | 3.5 | 0.00 | 0.01 | 0.01 | 47 | 996.4 |
| 20260506154611 | 67 | 34 | 0.0 | 1.7 | 0.00 | 0.01 | 0.01 | 47 | 996.2 |
| 20260506153100 | 67 | 293 | 0.0 | 1.7 | 0.00 | 0.01 | 0.01 | 46 | 996.2 |
| 20260506151549 | 69 | 279 | 0.9 | 6.1 | 0.00 | 0.01 | 0.01 | 45 | 996.2 |
| 20260506150038 | 69 | 240 | 0.0 | 1.7 | 0.00 | 0.01 | 0.01 | 44 | 996.0 |
| 20260506144529 | 70 | 275 | 0.9 | 3.5 | 0.00 | 0.01 | 0.01 | 45 | 996.0 |
| 20260506143023 | 69 | 279 | 0.9 | 3.5 | 0.00 | 0.01 | 0.01 | 45 | 995.8 |
| 20260506141612 | 70 | 266 | 1.7 | 3.5 | 0.00 | 0.01 | 0.01 | 44 | 995.7 |
| 20260506134551 | 71 | 256 | 1.7 | 7.0 | 0.00 | 0.01 | 0.01 | 46 | 995.7 |
| 20260506133046 | 71 | 259 | 0.9 | 3.5 | 0.00 | 0.01 | 0.01 | 45 | 995.6 |
| 20260506131535 | 71 | 281 | 1.7 | 5.2 | 0.00 | 0.01 | 0.01 | 45 | 995.5 |
| 20260506130057 | 71 | 167 | 2.6 | 7.0 | 0.00 | 0.01 | 0.01 | 46 | 995.4 |
| 20260506124546 | 70 | 311 | 0.9 | 3.5 | 0.00 | 0.01 | 0.01 | 47 | 995.3 |
| 20260506121527 | 72 | 284 | 2.6 | 7.8 | 0.00 | 0.01 | 0.01 | 44 | 995.1 |
| 20260506120115 | 71 | 286 | 0.9 | 5.2 | 0.00 | 0.01 | 0.01 | 46 | 995.2 |
| 20260506114610 | 72 | 296 | 0.9 | 7.0 | 0.00 | 0.01 | 0.01 | 45 | 995.0 |
| 20260506113100 | 72 | 320 | 2.6 | 11.3 | 0.00 | 0.01 | 0.01 | 45 | 994.9 |
| 20260506111549 | 67 | 293 | 0.9 | 3.5 | 0.00 | 0.01 | 0.01 | 50 | 994.8 |
| 20260506110038 | 68 | 289 | 0.9 | 3.5 | 0.00 | 0.01 | 0.01 | 50 | 994.8 |
| 20260506103022 | 72 | 347 | 0.9 | 3.5 | 0.00 | 0.01 | 0.01 | 49 | 994.5 |
| 20260506101612 | 70 | 323 | 0.9 | 3.5 | 0.00 | 0.01 | 0.01 | 53 | 994.4 |
| 20260506094551 | 70 | 274 | 1.7 | 6.1 | 0.00 | 0.01 | 0.01 | 54 | 994.0 |
| 20260506093045 | 68 | 270 | 0.9 | 7.8 | 0.00 | 0.01 | 0.01 | 57 | 994.1 |
| 20260506090052 | 69 | 264 | 3.5 | 7.8 | 0.00 | 0.01 | 0.01 | 56 | 993.9 |
| 20260506084547 | 68 | 209 | 2.6 | 9.6 | 0.01 | 0.01 | 0.01 | 59 | 994.0 |
| 20260506083037 | 67 | 248 | 2.6 | 7.0 | 0.01 | 0.01 | 0.01 | 59 | 993.9 |
| 20260506081527 | 67 | 270 | 0.9 | 3.5 | 0.01 | 0.01 | 0.01 | 64 | 994.0 |
| 20260506073100 | 63 | 280 | 1.7 | 5.2 | 0.00 | 0.00 | 0.00 | 72 | 993.8 |
| 20260506071550 | 60 | 260 | 1.7 | 3.5 | 0.00 | 0.00 | 0.00 | 79 | 993.8 |
| 20260506061612 | 56 | 293 | 0.0 | 0.0 | 0.00 | 0.00 | 0.00 | 89 | 993.5 |
| 20260506050104 | 60 | 257 | 1.7 | 3.5 | 0.00 | 0.00 | 0.00 | 73 | 993.3 |
| 20260506044559 | 60 | 252 | 0.9 | 3.5 | 0.00 | 0.00 | 0.00 | 73 | 993.1 |
| 20260506043048 | 59 | 262 | 0.9 | 3.5 | 0.00 | 0.00 | 0.00 | 77 | 992.9 |